sensor_id;sensor_type;location;lat;lon;timestamp;P1;durP1;ratioP1;P2;durP2;ratioP2
19554;SDS011;9924;50.828;6.440;2022-12-29T00:00:46;0.20;;;0.20;;
19554;SDS011;9924;50.828;6.440;2022-12-29T00:03:31;0.57;;;0.20;;
19554;SDS011;9924;50.828;6.440;2022-12-29T00:06:15;0.22;;;0.20;;
19554;SDS011;9924;50.828;6.440;2022-12-29T00:08:59;0.10;;;0.10;;
19554;SDS011;9924;50.828;6.440;2022-12-29T00:11:44;0.20;;;0.20;;
19554;SDS011;9924;50.828;6.440;2022-12-29T00:14:29;0.75;;;0.28;;
19554;SDS011;9924;50.828;6.440;2022-12-29T00:17:32;0.10;;;0.10;;
19554;SDS011;9924;50.828;6.440;2022-12-29T00:20:16;0.20;;;0.20;;
19554;SDS011;9924;50.828;6.440;2022-12-29T00:23:20;0.20;;;0.20;;
19554;SDS011;9924;50.828;6.440;2022-12-29T00:26:23;0.15;;;0.15;;
19554;SDS011;9924;50.828;6.440;2022-12-29T00:29:27;0.15;;;0.15;;
19554;SDS011;9924;50.828;6.440;2022-12-29T00:32:30;0.20;;;0.20;;
19554;SDS011;9924;50.828;6.440;2022-12-29T00:35:35;0.30;;;0.20;;
19554;SDS011;9924;50.828;6.440;2022-12-29T00:38:23;0.22;;;0.22;;
19554;SDS011;9924;50.828;6.440;2022-12-29T00:41:26;0.15;;;0.10;;
19554;SDS011;9924;50.828;6.440;2022-12-29T00:44:30;0.30;;;0.30;;
19554;SDS011;9924;50.828;6.440;2022-12-29T00:47:14;0.10;;;0.10;;
19554;SDS011;9924;50.828;6.440;2022-12-29T00:49:59;0.20;;;0.20;;
19554;SDS011;9924;50.828;6.440;2022-12-29T00:52:44;0.65;;;0.30;;
19554;SDS011;9924;50.828;6.440;2022-12-29T00:55:28;0.10;;;0.10;;
19554;SDS011;9924;50.828;6.440;2022-12-29T00:58:12;0.20;;;0.20;;
19554;SDS011;9924;50.828;6.440;2022-12-29T01:01:00;0.20;;;0.20;;
19554;SDS011;9924;50.828;6.440;2022-12-29T01:03:46;0.20;;;0.20;;
19554;SDS011;9924;50.828;6.440;2022-12-29T01:06:30;0.40;;;0.38;;
19554;SDS011;9924;50.828;6.440;2022-12-29T01:09:16;0.22;;;0.22;;
19554;SDS011;9924;50.828;6.440;2022-12-29T01:12:20;0.45;;;0.40;;
19554;SDS011;9924;50.828;6.440;2022-12-29T01:15:24;0.40;;;0.30;;
19554;SDS011;9924;50.828;6.440;2022-12-29T01:18:08;1.30;;;0.35;;
19554;SDS011;9924;50.828;6.440;2022-12-29T01:21:05;1.00;;;0.30;;
19554;SDS011;9924;50.828;6.440;2022-12-29T01:23:50;0.40;;;0.40;;
19554;SDS011;9924;50.828;6.440;2022-12-29T01:26:34;0.57;;;0.38;;
19554;SDS011;9924;50.828;6.440;2022-12-29T01:29:18;1.45;;;0.50;;
19554;SDS011;9924;50.828;6.440;2022-12-29T01:32:03;0.50;;;0.40;;
19554;SDS011;9924;50.828;6.440;2022-12-29T01:34:48;0.52;;;0.52;;
19554;SDS011;9924;50.828;6.440;2022-12-29T01:37:32;1.95;;;0.52;;
19554;SDS011;9924;50.828;6.440;2022-12-29T01:40:17;1.05;;;0.43;;
19554;SDS011;9924;50.828;6.440;2022-12-29T01:43:01;0.80;;;0.50;;
19554;SDS011;9924;50.828;6.440;2022-12-29T01:45:48;2.05;;;0.68;;
19554;SDS011;9924;50.828;6.440;2022-12-29T01:48:34;2.17;;;0.50;;
19554;SDS011;9924;50.828;6.440;2022-12-29T01:51:19;1.30;;;0.55;;
19554;SDS011;9924;50.828;6.440;2022-12-29T01:54:08;1.27;;;0.60;;
19554;SDS011;9924;50.828;6.440;2022-12-29T01:56:57;1.65;;;0.47;;
19554;SDS011;9924;50.828;6.440;2022-12-29T01:59:46;0.57;;;0.32;;
19554;SDS011;9924;50.828;6.440;2022-12-29T02:02:38;1.88;;;0.60;;
19554;SDS011;9924;50.828;6.440;2022-12-29T02:05:33;1.10;;;0.57;;
19554;SDS011;9924;50.828;6.440;2022-12-29T02:08:20;2.10;;;0.60;;
19554;SDS011;9924;50.828;6.440;2022-12-29T02:11:08;0.80;;;0.60;;
19554;SDS011;9924;50.828;6.440;2022-12-29T02:13:53;1.25;;;0.40;;
19554;SDS011;9924;50.828;6.440;2022-12-29T02:16:48;0.60;;;0.52;;
19554;SDS011;9924;50.828;6.440;2022-12-29T02:20:12;0.60;;;0.45;;
19554;SDS011;9924;50.828;6.440;2022-12-29T02:29:33;1.90;;;0.50;;
19554;SDS011;9924;50.828;6.440;2022-12-29T02:35:29;0.30;;;0.30;;
19554;SDS011;9924;50.828;6.440;2022-12-29T02:41:57;0.70;;;0.60;;
19554;SDS011;9924;50.828;6.440;2022-12-29T02:47:48;1.13;;;0.40;;
19554;SDS011;9924;50.828;6.440;2022-12-29T02:51:02;0.40;;;0.40;;
19554;SDS011;9924;50.828;6.440;2022-12-29T02:53:52;0.35;;;0.30;;
19554;SDS011;9924;50.828;6.440;2022-12-29T02:56:56;1.48;;;0.40;;
19554;SDS011;9924;50.828;6.440;2022-12-29T02:59:41;0.50;;;0.38;;
19554;SDS011;9924;50.828;6.440;2022-12-29T03:11:38;0.82;;;0.40;;
19554;SDS011;9924;50.828;6.440;2022-12-29T03:15:02;1.13;;;0.30;;
19554;SDS011;9924;50.828;6.440;2022-12-29T03:21:32;0.30;;;0.30;;
19554;SDS011;9924;50.828;6.440;2022-12-29T03:24:37;0.80;;;0.40;;
19554;SDS011;9924;50.828;6.440;2022-12-29T03:27:35;0.65;;;0.30;;
19554;SDS011;9924;50.828;6.440;2022-12-29T03:30:23;1.70;;;0.47;;
19554;SDS011;9924;50.828;6.440;2022-12-29T03:33:11;0.52;;;0.40;;
19554;SDS011;9924;50.828;6.440;2022-12-29T03:35:59;0.52;;;0.40;;
19554;SDS011;9924;50.828;6.440;2022-12-29T03:38:47;0.98;;;0.40;;
19554;SDS011;9924;50.828;6.440;2022-12-29T03:41:37;0.68;;;0.40;;
19554;SDS011;9924;50.828;6.440;2022-12-29T03:44:46;1.00;;;0.35;;
19554;SDS011;9924;50.828;6.440;2022-12-29T03:47:30;1.75;;;0.45;;
19554;SDS011;9924;50.828;6.440;2022-12-29T03:50:15;0.85;;;0.47;;
19554;SDS011;9924;50.828;6.440;2022-12-29T03:52:59;0.85;;;0.40;;
19554;SDS011;9924;50.828;6.440;2022-12-29T03:55:44;1.13;;;0.43;;
19554;SDS011;9924;50.828;6.440;2022-12-29T03:58:29;1.58;;;0.60;;
19554;SDS011;9924;50.828;6.440;2022-12-29T04:01:13;3.60;;;0.50;;
19554;SDS011;9924;50.828;6.440;2022-12-29T04:03:57;0.80;;;0.70;;
19554;SDS011;9924;50.828;6.440;2022-12-29T04:06:42;1.70;;;0.65;;
19554;SDS011;9924;50.828;6.440;2022-12-29T04:09:26;1.58;;;0.35;;
19554;SDS011;9924;50.828;6.440;2022-12-29T04:12:11;0.30;;;0.30;;
19554;SDS011;9924;50.828;6.440;2022-12-29T04:14:55;0.85;;;0.40;;
19554;SDS011;9924;50.828;6.440;2022-12-29T04:17:40;0.43;;;0.40;;
19554;SDS011;9924;50.828;6.440;2022-12-29T04:20:24;1.40;;;0.43;;
19554;SDS011;9924;50.828;6.440;2022-12-29T04:23:44;0.80;;;0.35;;
19554;SDS011;9924;50.828;6.440;2022-12-29T04:26:28;1.27;;;0.50;;
19554;SDS011;9924;50.828;6.440;2022-12-29T04:29:13;1.30;;;0.70;;
19554;SDS011;9924;50.828;6.440;2022-12-29T04:31:57;2.67;;;0.60;;
19554;SDS011;9924;50.828;6.440;2022-12-29T04:34:41;0.85;;;0.45;;
19554;SDS011;9924;50.828;6.440;2022-12-29T04:37:26;1.40;;;0.43;;
19554;SDS011;9924;50.828;6.440;2022-12-29T04:40:10;1.70;;;0.47;;
19554;SDS011;9924;50.828;6.440;2022-12-29T04:42:55;2.90;;;0.70;;
19554;SDS011;9924;50.828;6.440;2022-12-29T04:45:43;2.05;;;0.40;;
19554;SDS011;9924;50.828;6.440;2022-12-29T04:48:28;2.78;;;0.60;;
19554;SDS011;9924;50.828;6.440;2022-12-29T04:51:12;0.38;;;0.38;;
19554;SDS011;9924;50.828;6.440;2022-12-29T04:53:57;0.73;;;0.50;;
19554;SDS011;9924;50.828;6.440;2022-12-29T04:56:41;0.60;;;0.40;;
19554;SDS011;9924;50.828;6.440;2022-12-29T04:59:25;2.08;;;0.63;;
19554;SDS011;9924;50.828;6.440;2022-12-29T05:02:10;2.35;;;0.70;;
19554;SDS011;9924;50.828;6.440;2022-12-29T05:04:54;0.65;;;0.40;;
19554;SDS011;9924;50.828;6.440;2022-12-29T05:07:39;2.10;;;0.50;;
19554;SDS011;9924;50.828;6.440;2022-12-29T05:10:23;1.20;;;0.50;;
19554;SDS011;9924;50.828;6.440;2022-12-29T05:13:08;1.85;;;0.57;;
19554;SDS011;9924;50.828;6.440;2022-12-29T05:15:52;1.52;;;0.50;;
19554;SDS011;9924;50.828;6.440;2022-12-29T05:18:37;2.90;;;0.50;;
19554;SDS011;9924;50.828;6.440;2022-12-29T05:21:21;1.05;;;0.40;;
19554;SDS011;9924;50.828;6.440;2022-12-29T05:24:06;3.40;;;0.50;;
19554;SDS011;9924;50.828;6.440;2022-12-29T05:26:50;2.45;;;0.95;;
19554;SDS011;9924;50.828;6.440;2022-12-29T05:29:34;1.20;;;0.30;;
19554;SDS011;9924;50.828;6.440;2022-12-29T05:32:19;1.27;;;0.50;;
19554;SDS011;9924;50.828;6.440;2022-12-29T05:35:03;1.73;;;0.50;;
19554;SDS011;9924;50.828;6.440;2022-12-29T05:37:48;0.80;;;0.40;;
19554;SDS011;9924;50.828;6.440;2022-12-29T05:40:33;1.95;;;0.40;;
19554;SDS011;9924;50.828;6.440;2022-12-29T05:43:17;1.23;;;0.50;;
19554;SDS011;9924;50.828;6.440;2022-12-29T05:46:01;0.77;;;0.40;;
19554;SDS011;9924;50.828;6.440;2022-12-29T05:48:46;0.55;;;0.47;;
19554;SDS011;9924;50.828;6.440;2022-12-29T05:51:31;1.77;;;0.55;;
19554;SDS011;9924;50.828;6.440;2022-12-29T05:54:15;0.70;;;0.40;;
19554;SDS011;9924;50.828;6.440;2022-12-29T05:57:00;3.35;;;0.45;;
19554;SDS011;9924;50.828;6.440;2022-12-29T05:59:44;2.85;;;1.08;;
19554;SDS011;9924;50.828;6.440;2022-12-29T06:02:28;1.88;;;0.40;;
19554;SDS011;9924;50.828;6.440;2022-12-29T06:05:13;0.52;;;0.38;;
19554;SDS011;9924;50.828;6.440;2022-12-29T06:07:57;0.52;;;0.32;;
19554;SDS011;9924;50.828;6.440;2022-12-29T06:10:42;2.20;;;0.57;;
19554;SDS011;9924;50.828;6.440;2022-12-29T06:13:27;2.00;;;0.50;;
19554;SDS011;9924;50.828;6.440;2022-12-29T06:16:11;1.50;;;0.40;;
19554;SDS011;9924;50.828;6.440;2022-12-29T06:18:55;2.00;;;0.47;;
19554;SDS011;9924;50.828;6.440;2022-12-29T06:21:40;1.23;;;0.40;;
19554;SDS011;9924;50.828;6.440;2022-12-29T06:24:24;1.08;;;0.43;;
19554;SDS011;9924;50.828;6.440;2022-12-29T06:27:08;0.88;;;0.47;;
19554;SDS011;9924;50.828;6.440;2022-12-29T06:29:53;3.58;;;1.35;;
19554;SDS011;9924;50.828;6.440;2022-12-29T06:32:37;1.05;;;0.70;;
19554;SDS011;9924;50.828;6.440;2022-12-29T06:35:21;1.25;;;0.45;;
19554;SDS011;9924;50.828;6.440;2022-12-29T06:38:06;2.97;;;0.65;;
19554;SDS011;9924;50.828;6.440;2022-12-29T06:40:50;1.17;;;0.30;;
19554;SDS011;9924;50.828;6.440;2022-12-29T06:43:34;1.75;;;0.55;;
19554;SDS011;9924;50.828;6.440;2022-12-29T06:46:21;2.88;;;0.40;;
19554;SDS011;9924;50.828;6.440;2022-12-29T06:49:06;0.50;;;0.32;;
19554;SDS011;9924;50.828;6.440;2022-12-29T06:51:50;1.83;;;0.50;;
19554;SDS011;9924;50.828;6.440;2022-12-29T06:54:35;1.55;;;0.70;;
19554;SDS011;9924;50.828;6.440;2022-12-29T06:57:19;1.10;;;0.40;;
19554;SDS011;9924;50.828;6.440;2022-12-29T07:00:05;0.85;;;0.43;;
19554;SDS011;9924;50.828;6.440;2022-12-29T07:02:50;2.05;;;0.40;;
19554;SDS011;9924;50.828;6.440;2022-12-29T07:05:35;2.80;;;0.60;;
19554;SDS011;9924;50.828;6.440;2022-12-29T07:08:20;2.08;;;0.60;;
19554;SDS011;9924;50.828;6.440;2022-12-29T07:11:05;1.70;;;0.60;;
19554;SDS011;9924;50.828;6.440;2022-12-29T07:13:49;4.03;;;0.68;;
19554;SDS011;9924;50.828;6.440;2022-12-29T07:16:34;5.43;;;0.98;;
19554;SDS011;9924;50.828;6.440;2022-12-29T07:19:20;1.75;;;0.65;;
19554;SDS011;9924;50.828;6.440;2022-12-29T07:22:04;4.00;;;0.90;;
19554;SDS011;9924;50.828;6.440;2022-12-29T07:24:48;3.53;;;0.60;;
19554;SDS011;9924;50.828;6.440;2022-12-29T07:27:33;2.83;;;0.50;;
19554;SDS011;9924;50.828;6.440;2022-12-29T07:30:17;4.05;;;0.70;;
19554;SDS011;9924;50.828;6.440;2022-12-29T07:33:02;3.05;;;0.60;;
19554;SDS011;9924;50.828;6.440;2022-12-29T07:35:46;1.13;;;0.60;;
19554;SDS011;9924;50.828;6.440;2022-12-29T07:38:31;3.70;;;1.48;;
19554;SDS011;9924;50.828;6.440;2022-12-29T07:41:15;3.10;;;0.90;;
19554;SDS011;9924;50.828;6.440;2022-12-29T07:43:59;5.50;;;1.00;;
19554;SDS011;9924;50.828;6.440;2022-12-29T07:46:44;6.85;;;0.70;;
19554;SDS011;9924;50.828;6.440;2022-12-29T07:49:29;5.32;;;1.08;;
19554;SDS011;9924;50.828;6.440;2022-12-29T07:52:14;3.55;;;0.63;;
19554;SDS011;9924;50.828;6.440;2022-12-29T07:54:58;2.65;;;0.70;;
19554;SDS011;9924;50.828;6.440;2022-12-29T07:57:42;3.13;;;0.75;;
19554;SDS011;9924;50.828;6.440;2022-12-29T08:00:27;7.40;;;1.20;;
19554;SDS011;9924;50.828;6.440;2022-12-29T08:03:11;2.88;;;0.90;;
19554;SDS011;9924;50.828;6.440;2022-12-29T08:05:56;2.47;;;0.75;;
19554;SDS011;9924;50.828;6.440;2022-12-29T08:08:40;4.80;;;0.88;;
19554;SDS011;9924;50.828;6.440;2022-12-29T08:11:24;5.57;;;0.80;;
19554;SDS011;9924;50.828;6.440;2022-12-29T08:14:09;4.93;;;1.10;;
19554;SDS011;9924;50.828;6.440;2022-12-29T08:16:53;3.85;;;0.90;;
19554;SDS011;9924;50.828;6.440;2022-12-29T08:19:38;2.38;;;0.70;;
19554;SDS011;9924;50.828;6.440;2022-12-29T08:22:23;5.53;;;0.98;;
19554;SDS011;9924;50.828;6.440;2022-12-29T08:25:08;3.40;;;0.90;;
19554;SDS011;9924;50.828;6.440;2022-12-29T08:27:52;4.50;;;1.30;;
19554;SDS011;9924;50.828;6.440;2022-12-29T08:30:36;4.25;;;1.00;;
19554;SDS011;9924;50.828;6.440;2022-12-29T08:33:20;6.05;;;0.88;;
19554;SDS011;9924;50.828;6.440;2022-12-29T08:36:05;5.30;;;0.88;;
19554;SDS011;9924;50.828;6.440;2022-12-29T08:38:50;3.38;;;1.05;;
19554;SDS011;9924;50.828;6.440;2022-12-29T08:41:35;7.38;;;1.13;;
19554;SDS011;9924;50.828;6.440;2022-12-29T08:44:20;1.95;;;0.65;;
19554;SDS011;9924;50.828;6.440;2022-12-29T08:47:04;4.72;;;0.98;;
19554;SDS011;9924;50.828;6.440;2022-12-29T08:49:49;4.22;;;0.77;;
19554;SDS011;9924;50.828;6.440;2022-12-29T08:52:33;5.60;;;0.80;;
19554;SDS011;9924;50.828;6.440;2022-12-29T08:55:17;2.42;;;0.63;;
19554;SDS011;9924;50.828;6.440;2022-12-29T08:58:02;3.75;;;0.90;;
19554;SDS011;9924;50.828;6.440;2022-12-29T09:00:46;6.75;;;1.48;;
19554;SDS011;9924;50.828;6.440;2022-12-29T09:03:30;3.20;;;0.88;;
19554;SDS011;9924;50.828;6.440;2022-12-29T09:06:16;5.35;;;1.08;;
19554;SDS011;9924;50.828;6.440;2022-12-29T09:09:01;6.22;;;1.00;;
19554;SDS011;9924;50.828;6.440;2022-12-29T09:11:46;6.60;;;1.08;;
19554;SDS011;9924;50.828;6.440;2022-12-29T09:14:31;6.22;;;1.17;;
19554;SDS011;9924;50.828;6.440;2022-12-29T09:17:15;8.43;;;1.15;;
19554;SDS011;9924;50.828;6.440;2022-12-29T09:20:19;3.97;;;1.00;;
19554;SDS011;9924;50.828;6.440;2022-12-29T09:23:03;6.13;;;1.20;;
19554;SDS011;9924;50.828;6.440;2022-12-29T09:25:49;6.80;;;1.13;;
19554;SDS011;9924;50.828;6.440;2022-12-29T09:28:34;8.27;;;1.25;;
19554;SDS011;9924;50.828;6.440;2022-12-29T09:31:20;8.88;;;1.23;;
19554;SDS011;9924;50.828;6.440;2022-12-29T09:34:04;5.80;;;1.50;;
19554;SDS011;9924;50.828;6.440;2022-12-29T09:36:49;6.30;;;1.58;;
19554;SDS011;9924;50.828;6.440;2022-12-29T09:39:34;4.70;;;0.80;;
19554;SDS011;9924;50.828;6.440;2022-12-29T09:42:20;7.22;;;1.38;;
19554;SDS011;9924;50.828;6.440;2022-12-29T09:45:40;5.22;;;1.08;;
19554;SDS011;9924;50.828;6.440;2022-12-29T09:48:33;4.93;;;1.15;;
19554;SDS011;9924;50.828;6.440;2022-12-29T09:51:21;2.85;;;1.10;;
19554;SDS011;9924;50.828;6.440;2022-12-29T10:03:45;2.60;;;0.77;;
19554;SDS011;9924;50.828;6.440;2022-12-29T10:09:27;5.63;;;1.33;;
19554;SDS011;9924;50.828;6.440;2022-12-29T10:12:33;3.78;;;1.15;;
19554;SDS011;9924;50.828;6.440;2022-12-29T10:24:34;4.80;;;1.00;;
19554;SDS011;9924;50.828;6.440;2022-12-29T10:27:22;3.55;;;0.80;;
19554;SDS011;9924;50.828;6.440;2022-12-29T10:30:10;2.35;;;0.63;;
19554;SDS011;9924;50.828;6.440;2022-12-29T10:33:01;6.32;;;1.27;;
19554;SDS011;9924;50.828;6.440;2022-12-29T10:35:49;6.18;;;1.02;;
19554;SDS011;9924;50.828;6.440;2022-12-29T10:38:35;5.88;;;1.15;;
19554;SDS011;9924;50.828;6.440;2022-12-29T10:41:25;7.30;;;1.13;;
19554;SDS011;9924;50.828;6.440;2022-12-29T10:44:16;7.72;;;1.15;;
19554;SDS011;9924;50.828;6.440;2022-12-29T10:47:03;2.92;;;0.90;;
19554;SDS011;9924;50.828;6.440;2022-12-29T10:49:50;4.30;;;1.17;;
19554;SDS011;9924;50.828;6.440;2022-12-29T10:52:35;8.05;;;1.20;;
19554;SDS011;9924;50.828;6.440;2022-12-29T10:55:24;8.63;;;1.45;;
19554;SDS011;9924;50.828;6.440;2022-12-29T10:58:23;4.07;;;1.23;;
19554;SDS011;9924;50.828;6.440;2022-12-29T11:01:10;4.95;;;0.90;;
19554;SDS011;9924;50.828;6.440;2022-12-29T11:07:16;2.95;;;0.98;;
19554;SDS011;9924;50.828;6.440;2022-12-29T11:13:26;6.20;;;1.20;;
19554;SDS011;9924;50.828;6.440;2022-12-29T11:16:13;3.08;;;1.20;;
19554;SDS011;9924;50.828;6.440;2022-12-29T11:18:57;8.23;;;2.35;;
19554;SDS011;9924;50.828;6.440;2022-12-29T11:21:42;5.95;;;1.10;;
19554;SDS011;9924;50.828;6.440;2022-12-29T11:24:28;4.28;;;1.23;;
19554;SDS011;9924;50.828;6.440;2022-12-29T11:27:17;5.22;;;1.08;;
19554;SDS011;9924;50.828;6.440;2022-12-29T11:30:21;8.18;;;1.35;;
19554;SDS011;9924;50.828;6.440;2022-12-29T11:33:07;4.10;;;1.27;;
19554;SDS011;9924;50.828;6.440;2022-12-29T11:35:56;9.00;;;1.45;;
19554;SDS011;9924;50.828;6.440;2022-12-29T11:38:48;4.25;;;1.20;;
19554;SDS011;9924;50.828;6.440;2022-12-29T11:41:35;4.28;;;1.25;;
19554;SDS011;9924;50.828;6.440;2022-12-29T11:44:19;6.47;;;1.00;;
19554;SDS011;9924;50.828;6.440;2022-12-29T11:47:03;3.83;;;1.33;;
19554;SDS011;9924;50.828;6.440;2022-12-29T11:49:52;4.20;;;0.73;;
19554;SDS011;9924;50.828;6.440;2022-12-29T11:52:40;9.73;;;1.15;;
19554;SDS011;9924;50.828;6.440;2022-12-29T11:55:25;6.47;;;1.38;;
19554;SDS011;9924;50.828;6.440;2022-12-29T11:58:14;8.02;;;1.20;;
19554;SDS011;9924;50.828;6.440;2022-12-29T12:01:00;6.60;;;1.27;;
19554;SDS011;9924;50.828;6.440;2022-12-29T12:10:11;4.22;;;1.20;;
19554;SDS011;9924;50.828;6.440;2022-12-29T12:13:03;8.00;;;1.08;;
19554;SDS011;9924;50.828;6.440;2022-12-29T12:16:15;6.03;;;1.27;;
19554;SDS011;9924;50.828;6.440;2022-12-29T12:19:03;8.40;;;1.40;;
19554;SDS011;9924;50.828;6.440;2022-12-29T12:22:17;9.73;;;1.48;;
19554;SDS011;9924;50.828;6.440;2022-12-29T12:25:20;7.82;;;1.30;;
19554;SDS011;9924;50.828;6.440;2022-12-29T12:31:06;2.08;;;0.70;;
19554;SDS011;9924;50.828;6.440;2022-12-29T12:34:12;7.28;;;1.65;;
19554;SDS011;9924;50.828;6.440;2022-12-29T12:46:37;5.38;;;1.10;;
19554;SDS011;9924;50.828;6.440;2022-12-29T12:55:58;6.78;;;1.63;;
19554;SDS011;9924;50.828;6.440;2022-12-29T13:11:45;4.13;;;1.15;;
19554;SDS011;9924;50.828;6.440;2022-12-29T13:17:47;6.47;;;0.82;;
19554;SDS011;9924;50.828;6.440;2022-12-29T13:27:19;4.75;;;1.10;;
19554;SDS011;9924;50.828;6.440;2022-12-29T13:30:57;4.82;;;1.20;;
19554;SDS011;9924;50.828;6.440;2022-12-29T13:36:42;4.82;;;1.13;;
19554;SDS011;9924;50.828;6.440;2022-12-29T13:39:37;5.97;;;1.10;;
19554;SDS011;9924;50.828;6.440;2022-12-29T13:42:35;7.47;;;1.20;;
19554;SDS011;9924;50.828;6.440;2022-12-29T13:45:21;3.50;;;0.90;;
19554;SDS011;9924;50.828;6.440;2022-12-29T13:48:17;6.03;;;1.33;;
19554;SDS011;9924;50.828;6.440;2022-12-29T13:51:14;6.20;;;1.30;;
19554;SDS011;9924;50.828;6.440;2022-12-29T13:54:12;4.40;;;1.58;;
19554;SDS011;9924;50.828;6.440;2022-12-29T14:00:16;6.25;;;1.10;;
19554;SDS011;9924;50.828;6.440;2022-12-29T14:08:58;8.52;;;1.10;;
19554;SDS011;9924;50.828;6.440;2022-12-29T14:11:49;8.32;;;1.63;;
19554;SDS011;9924;50.828;6.440;2022-12-29T14:14:34;6.32;;;1.20;;
19554;SDS011;9924;50.828;6.440;2022-12-29T14:17:21;7.18;;;1.20;;
19554;SDS011;9924;50.828;6.440;2022-12-29T14:20:16;6.25;;;1.10;;
19554;SDS011;9924;50.828;6.440;2022-12-29T14:28:53;8.52;;;1.30;;
19554;SDS011;9924;50.828;6.440;2022-12-29T14:31:37;4.85;;;1.05;;
19554;SDS011;9924;50.828;6.440;2022-12-29T14:34:27;10.18;;;1.17;;
19554;SDS011;9924;50.828;6.440;2022-12-29T14:37:36;4.47;;;1.00;;
19554;SDS011;9924;50.828;6.440;2022-12-29T14:40:24;2.00;;;0.73;;
19554;SDS011;9924;50.828;6.440;2022-12-29T14:43:13;4.75;;;1.05;;
19554;SDS011;9924;50.828;6.440;2022-12-29T14:46:04;5.43;;;1.35;;
19554;SDS011;9924;50.828;6.440;2022-12-29T14:48:54;7.22;;;1.25;;
19554;SDS011;9924;50.828;6.440;2022-12-29T14:51:44;7.55;;;1.52;;
19554;SDS011;9924;50.828;6.440;2022-12-29T14:54:40;5.55;;;0.88;;
19554;SDS011;9924;50.828;6.440;2022-12-29T14:57:28;8.27;;;1.23;;
19554;SDS011;9924;50.828;6.440;2022-12-29T15:00:21;8.70;;;1.38;;
19554;SDS011;9924;50.828;6.440;2022-12-29T15:03:25;11.68;;;2.30;;
19554;SDS011;9924;50.828;6.440;2022-12-29T15:06:16;6.05;;;1.10;;
19554;SDS011;9924;50.828;6.440;2022-12-29T15:15:38;6.85;;;1.25;;
19554;SDS011;9924;50.828;6.440;2022-12-29T15:21:11;8.77;;;1.70;;
19554;SDS011;9924;50.828;6.440;2022-12-29T15:23:58;7.95;;;1.40;;
19554;SDS011;9924;50.828;6.440;2022-12-29T15:26:44;7.35;;;1.40;;
19554;SDS011;9924;50.828;6.440;2022-12-29T15:29:40;11.20;;;1.90;;
19554;SDS011;9924;50.828;6.440;2022-12-29T15:32:26;6.88;;;1.30;;
19554;SDS011;9924;50.828;6.440;2022-12-29T15:38:21;8.88;;;1.60;;
19554;SDS011;9924;50.828;6.440;2022-12-29T15:44:21;8.40;;;1.50;;
19554;SDS011;9924;50.828;6.440;2022-12-29T15:47:24;9.73;;;1.80;;
19554;SDS011;9924;50.828;6.440;2022-12-29T15:50:19;7.45;;;1.77;;
19554;SDS011;9924;50.828;6.440;2022-12-29T15:53:10;6.53;;;1.30;;
19554;SDS011;9924;50.828;6.440;2022-12-29T15:56:05;4.93;;;1.33;;
19554;SDS011;9924;50.828;6.440;2022-12-29T15:58:51;7.93;;;1.40;;
19554;SDS011;9924;50.828;6.440;2022-12-29T16:01:36;5.55;;;1.27;;
19554;SDS011;9924;50.828;6.440;2022-12-29T16:04:21;6.07;;;1.60;;
19554;SDS011;9924;50.828;6.440;2022-12-29T16:07:20;6.78;;;1.45;;
19554;SDS011;9924;50.828;6.440;2022-12-29T16:10:25;7.32;;;1.45;;
19554;SDS011;9924;50.828;6.440;2022-12-29T16:13:26;9.90;;;1.67;;
19554;SDS011;9924;50.828;6.440;2022-12-29T16:16:18;11.40;;;1.45;;
19554;SDS011;9924;50.828;6.440;2022-12-29T16:19:48;9.15;;;1.80;;
19554;SDS011;9924;50.828;6.440;2022-12-29T16:22:27;7.07;;;2.15;;
19554;SDS011;9924;50.828;6.440;2022-12-29T16:25:33;12.02;;;2.03;;
19554;SDS011;9924;50.828;6.440;2022-12-29T16:28:25;8.45;;;1.42;;
19554;SDS011;9924;50.828;6.440;2022-12-29T16:31:32;7.75;;;2.00;;
19554;SDS011;9924;50.828;6.440;2022-12-29T16:34:32;8.38;;;2.40;;
19554;SDS011;9924;50.828;6.440;2022-12-29T16:37:30;6.25;;;1.80;;
19554;SDS011;9924;50.828;6.440;2022-12-29T16:43:18;8.95;;;1.60;;
19554;SDS011;9924;50.828;6.440;2022-12-29T16:46:18;8.70;;;2.05;;
19554;SDS011;9924;50.828;6.440;2022-12-29T16:49:15;8.00;;;1.83;;
19554;SDS011;9924;50.828;6.440;2022-12-29T16:52:01;9.23;;;1.50;;
19554;SDS011;9924;50.828;6.440;2022-12-29T16:54:55;9.80;;;2.10;;
19554;SDS011;9924;50.828;6.440;2022-12-29T16:57:41;8.35;;;1.70;;
19554;SDS011;9924;50.828;6.440;2022-12-29T17:00:28;10.05;;;2.08;;
19554;SDS011;9924;50.828;6.440;2022-12-29T17:03:17;11.20;;;2.33;;
19554;SDS011;9924;50.828;6.440;2022-12-29T17:06:02;8.82;;;1.70;;
19554;SDS011;9924;50.828;6.440;2022-12-29T17:08:46;5.68;;;1.10;;
19554;SDS011;9924;50.828;6.440;2022-12-29T17:11:32;10.15;;;1.52;;
19554;SDS011;9924;50.828;6.440;2022-12-29T17:17:39;12.07;;;1.92;;
19554;SDS011;9924;50.828;6.440;2022-12-29T17:20:29;11.75;;;2.33;;
19554;SDS011;9924;50.828;6.440;2022-12-29T17:23:14;5.03;;;1.90;;
19554;SDS011;9924;50.828;6.440;2022-12-29T17:25:59;10.15;;;2.00;;
19554;SDS011;9924;50.828;6.440;2022-12-29T17:28:45;7.88;;;1.40;;
19554;SDS011;9924;50.828;6.440;2022-12-29T17:31:29;12.40;;;1.65;;
19554;SDS011;9924;50.828;6.440;2022-12-29T17:34:14;10.60;;;2.40;;
19554;SDS011;9924;50.828;6.440;2022-12-29T17:36:58;8.43;;;1.73;;
19554;SDS011;9924;50.828;6.440;2022-12-29T17:39:43;11.25;;;2.38;;
19554;SDS011;9924;50.828;6.440;2022-12-29T17:42:27;7.05;;;1.73;;
19554;SDS011;9924;50.828;6.440;2022-12-29T17:45:19;10.13;;;1.98;;
19554;SDS011;9924;50.828;6.440;2022-12-29T17:48:15;10.70;;;1.98;;
19554;SDS011;9924;50.828;6.440;2022-12-29T17:51:01;8.35;;;2.45;;
19554;SDS011;9924;50.828;6.440;2022-12-29T17:53:45;5.97;;;1.73;;
19554;SDS011;9924;50.828;6.440;2022-12-29T17:56:29;9.90;;;1.50;;
19554;SDS011;9924;50.828;6.440;2022-12-29T17:59:14;11.13;;;1.67;;
19554;SDS011;9924;50.828;6.440;2022-12-29T18:01:59;13.00;;;2.05;;
19554;SDS011;9924;50.828;6.440;2022-12-29T18:04:44;18.02;;;3.83;;
19554;SDS011;9924;50.828;6.440;2022-12-29T18:07:28;9.60;;;2.00;;
19554;SDS011;9924;50.828;6.440;2022-12-29T18:10:13;12.18;;;2.60;;
19554;SDS011;9924;50.828;6.440;2022-12-29T18:12:58;8.93;;;2.10;;
19554;SDS011;9924;50.828;6.440;2022-12-29T18:15:45;18.58;;;2.88;;
19554;SDS011;9924;50.828;6.440;2022-12-29T18:18:29;12.45;;;2.13;;
19554;SDS011;9924;50.828;6.440;2022-12-29T18:21:15;7.60;;;2.33;;
19554;SDS011;9924;50.828;6.440;2022-12-29T18:24:04;13.40;;;2.33;;
19554;SDS011;9924;50.828;6.440;2022-12-29T18:26:48;12.65;;;1.92;;
19554;SDS011;9924;50.828;6.440;2022-12-29T18:29:33;10.60;;;2.03;;
19554;SDS011;9924;50.828;6.440;2022-12-29T18:32:18;14.82;;;2.33;;
19554;SDS011;9924;50.828;6.440;2022-12-29T18:35:08;11.45;;;1.92;;
19554;SDS011;9924;50.828;6.440;2022-12-29T18:38:05;12.73;;;2.40;;
19554;SDS011;9924;50.828;6.440;2022-12-29T18:40:50;6.90;;;2.08;;
19554;SDS011;9924;50.828;6.440;2022-12-29T18:43:34;12.75;;;2.40;;
19554;SDS011;9924;50.828;6.440;2022-12-29T18:46:19;9.13;;;1.52;;
19554;SDS011;9924;50.828;6.440;2022-12-29T18:49:03;8.93;;;1.55;;
19554;SDS011;9924;50.828;6.440;2022-12-29T18:51:47;8.07;;;1.52;;
19554;SDS011;9924;50.828;6.440;2022-12-29T18:54:32;10.90;;;1.80;;
19554;SDS011;9924;50.828;6.440;2022-12-29T18:57:16;5.70;;;1.20;;
19554;SDS011;9924;50.828;6.440;2022-12-29T19:00:01;10.25;;;1.58;;
19554;SDS011;9924;50.828;6.440;2022-12-29T19:02:46;5.97;;;1.63;;
19554;SDS011;9924;50.828;6.440;2022-12-29T19:05:35;7.50;;;1.45;;
19554;SDS011;9924;50.828;6.440;2022-12-29T19:08:20;6.40;;;1.25;;
19554;SDS011;9924;50.828;6.440;2022-12-29T19:11:05;7.32;;;1.40;;
19554;SDS011;9924;50.828;6.440;2022-12-29T19:13:49;7.57;;;1.23;;
19554;SDS011;9924;50.828;6.440;2022-12-29T19:16:34;6.53;;;1.55;;
19554;SDS011;9924;50.828;6.440;2022-12-29T19:19:19;6.13;;;1.85;;
19554;SDS011;9924;50.828;6.440;2022-12-29T19:22:03;6.30;;;1.83;;
19554;SDS011;9924;50.828;6.440;2022-12-29T19:24:47;14.98;;;2.10;;
19554;SDS011;9924;50.828;6.440;2022-12-29T19:27:32;3.97;;;1.55;;
19554;SDS011;9924;50.828;6.440;2022-12-29T19:30:18;6.63;;;1.75;;
19554;SDS011;9924;50.828;6.440;2022-12-29T19:33:03;6.57;;;2.30;;
19554;SDS011;9924;50.828;6.440;2022-12-29T19:35:47;4.32;;;1.40;;